createdAt,value
2022-10-09T00:00:12.854Z,88.7
2022-10-09T00:01:12.889Z,88.8
2022-10-09T00:02:13.062Z,88.7
2022-10-09T00:03:12.890Z,88.6
2022-10-09T00:04:12.895Z,88.6
2022-10-09T00:05:13.046Z,88.8
2022-10-09T00:06:12.929Z,88.8
2022-10-09T00:07:12.940Z,88.8
2022-10-09T00:08:12.950Z,88.8
2022-10-09T00:09:12.964Z,88.6
2022-10-09T00:10:12.978Z,88.7
2022-10-09T00:11:12.978Z,88.9
2022-10-09T00:12:12.992Z,88.8
2022-10-09T00:13:13.005Z,89.2
2022-10-09T00:14:13.022Z,88.9
2022-10-09T00:15:13.037Z,88.9
2022-10-09T00:16:13.045Z,88.9
2022-10-09T00:17:13.045Z,88.8
2022-10-09T00:18:13.062Z,88.9
2022-10-09T00:19:13.071Z,89.0
2022-10-09T00:20:13.081Z,88.9
2022-10-09T00:21:13.096Z,88.9
2022-10-09T00:22:13.109Z,88.8
2022-10-09T00:23:13.118Z,89.0
2022-10-09T00:24:13.124Z,89.1
2022-10-09T00:25:13.123Z,89.0
2022-10-09T00:26:13.140Z,88.9
2022-10-09T00:27:13.166Z,88.9
2022-10-09T00:28:13.309Z,88.9
2022-10-09T00:29:13.177Z,88.8
2022-10-09T00:30:13.177Z,88.9
2022-10-09T00:31:13.374Z,88.7
2022-10-09T00:32:13.189Z,88.6
2022-10-09T00:33:13.202Z,88.7
2022-10-09T00:34:13.206Z,88.9
2022-10-09T00:35:13.231Z,88.8
2022-10-09T00:36:13.249Z,88.8
2022-10-09T00:37:13.260Z,88.9
2022-10-09T00:38:13.284Z,88.9
2022-10-09T00:39:13.303Z,88.9
2022-10-09T00:40:13.316Z,88.8
2022-10-09T00:41:13.333Z,88.8
2022-10-09T00:42:13.360Z,88.8
2022-10-09T00:43:13.391Z,88.8
2022-10-09T01:01:14.110Z,89.6
2022-10-09T01:02:13.844Z,89.6
2022-10-09T01:03:13.631Z,89.6
2022-10-09T01:04:13.644Z,89.6
2022-10-09T01:05:13.675Z,89.5
2022-10-09T01:06:13.677Z,89.4
2022-10-09T01:07:13.697Z,89.2
2022-10-09T01:08:13.697Z,89.0
2022-10-09T01:09:13.705Z,89.0
2022-10-09T01:10:13.728Z,88.9
2022-10-09T01:11:13.744Z,88.8
2022-10-09T01:12:13.755Z,88.8
2022-10-09T01:13:13.742Z,88.8
2022-10-09T01:14:13.753Z,88.7
2022-10-09T01:15:13.778Z,88.6
2022-10-09T01:16:14.015Z,88.7
2022-10-09T01:17:13.786Z,88.8
2022-10-09T01:18:13.798Z,88.8
2022-10-09T01:19:13.814Z,88.9
2022-10-09T01:20:13.819Z,88.9
2022-10-09T01:21:13.834Z,89.0
2022-10-09T01:22:13.838Z,89.0
2022-10-09T01:23:13.852Z,89.1
2022-10-09T01:24:13.869Z,89.2
2022-10-09T01:25:13.877Z,89.1
2022-10-09T01:26:13.884Z,89.1
2022-10-09T01:27:13.901Z,89.2
2022-10-09T01:28:14.078Z,89.2
2022-10-09T01:29:13.922Z,89.2
2022-10-09T01:30:13.935Z,89.1
2022-10-09T01:31:14.177Z,89.0
2022-10-09T01:32:13.968Z,89.0
2022-10-09T01:33:13.982Z,89.0
2022-10-09T01:34:14.030Z,89.0
2022-10-09T01:35:14.021Z,89.0
2022-10-09T01:36:14.043Z,89.2
2022-10-09T01:37:14.044Z,89.2
2022-10-09T01:38:14.056Z,89.1
2022-10-09T01:39:14.074Z,89.0
2022-10-09T01:40:14.091Z,89.0
2022-10-09T01:41:14.112Z,89.0
2022-10-09T01:42:14.126Z,89.0
2022-10-09T01:43:14.131Z,89.2
2022-10-09T01:44:14.154Z,89.1
2022-10-09T01:45:14.152Z,89.1
2022-10-09T01:46:14.408Z,89.2
2022-10-09T01:47:14.178Z,89.1
2022-10-09T01:48:14.191Z,89.0
2022-10-09T01:49:14.196Z,89.0
2022-10-09T01:50:14.221Z,89.0
2022-10-09T01:51:14.216Z,89.0
2022-10-09T01:52:14.246Z,89.0
2022-10-09T01:53:14.248Z,89.0
2022-10-09T01:54:14.255Z,89.0
2022-10-09T01:55:14.261Z,89.2
2022-10-09T01:56:14.263Z,89.1
2022-10-09T01:57:14.271Z,89.2
2022-10-09T01:58:14.299Z,89.2
2022-10-09T01:59:16.414Z,89.2
2022-10-09T02:00:14.320Z,89.2
2022-10-09T02:01:14.495Z,89.4
2022-10-09T02:02:14.779Z,89.4
2022-10-09T02:03:14.366Z,89.5
2022-10-09T02:04:14.386Z,89.6
2022-10-09T02:05:14.405Z,89.6
2022-10-09T02:06:14.403Z,89.6
2022-10-09T02:07:14.410Z,89.6
2022-10-09T02:08:14.434Z,89.5
2022-10-09T02:09:14.448Z,89.5
2022-10-09T02:10:14.458Z,89.4
2022-10-09T02:11:14.473Z,89.5
2022-10-09T02:12:14.486Z,89.3
2022-10-09T02:13:14.499Z,89.3
2022-10-09T02:14:14.523Z,89.4
2022-10-09T02:15:14.532Z,89.4
2022-10-09T02:16:14.725Z,89.4
2022-10-09T02:17:14.555Z,89.4
2022-10-09T02:18:14.572Z,89.6
2022-10-09T02:19:14.589Z,89.6
2022-10-09T02:20:14.595Z,89.6
2022-10-09T02:21:14.608Z,89.6
2022-10-09T02:22:14.633Z,89.5
2022-10-09T02:23:14.650Z,89.4
2022-10-09T02:24:14.647Z,89.6
2022-10-09T02:25:14.658Z,89.4
2022-10-09T02:26:14.674Z,89.4
2022-10-09T02:27:14.688Z,89.4
2022-10-09T02:28:14.852Z,89.5
2022-10-09T02:29:14.720Z,89.6
2022-10-09T02:30:14.726Z,89.6
2022-10-09T02:31:14.999Z,89.5
2022-10-09T02:32:14.807Z,89.6
2022-10-09T02:33:14.795Z,89.4
2022-10-09T02:34:14.776Z,89.5
2022-10-09T02:35:14.795Z,89.4
2022-10-09T02:36:14.815Z,89.4
2022-10-09T02:37:14.810Z,89.6
2022-10-09T02:38:14.814Z,89.7
2022-10-09T02:39:14.839Z,89.6
2022-10-09T02:40:14.840Z,89.6
2022-10-09T02:41:14.837Z,89.7
2022-10-09T02:42:14.845Z,89.6
2022-10-09T02:43:14.856Z,89.8
2022-10-09T02:44:14.860Z,89.5
2022-10-09T02:45:14.874Z,89.6
2022-10-09T02:46:15.043Z,89.4
2022-10-09T02:47:14.877Z,89.5
2022-10-09T02:48:14.881Z,89.5
2022-10-09T02:49:14.889Z,89.4
2022-10-09T02:50:14.897Z,89.4
2022-10-09T02:51:14.904Z,89.5
2022-10-09T02:52:14.907Z,89.4
2022-10-09T02:53:14.916Z,89.3
2022-10-09T02:54:14.918Z,89.4
2022-10-09T02:55:14.932Z,89.3
2022-10-09T02:56:14.935Z,89.1
2022-10-09T02:57:14.943Z,89.3
2022-10-09T02:58:14.945Z,89.3
2022-10-09T02:59:14.953Z,89.4
2022-10-09T03:00:14.966Z,89.4
2022-10-09T03:01:14.974Z,89.1
2022-10-09T03:02:15.351Z,89.1
2022-10-09T03:03:14.979Z,89.2
2022-10-09T03:04:14.988Z,89.0
2022-10-09T03:05:14.997Z,89.1
2022-10-09T03:06:15.018Z,89.1
2022-10-09T03:07:15.010Z,89.0
2022-10-09T03:08:15.018Z,89.0
2022-10-09T03:09:15.030Z,89.1
2022-10-09T03:10:15.047Z,89.1
2022-10-09T03:11:15.052Z,89.0
2022-10-09T03:12:15.047Z,88.9
2022-10-09T03:13:15.049Z,88.9
2022-10-09T03:14:15.079Z,88.8
2022-10-09T03:15:15.126Z,88.8
2022-10-09T03:16:15.355Z,88.9
2022-10-09T03:17:15.086Z,89.0
2022-10-09T03:18:15.081Z,89.0
2022-10-09T03:19:15.087Z,88.9
2022-10-09T03:20:15.091Z,88.9
2022-10-09T03:21:15.096Z,88.9
2022-10-09T03:22:15.110Z,88.9
2022-10-09T03:23:15.108Z,89.0
2022-10-09T03:24:15.117Z,89.0
2022-10-09T03:25:15.122Z,88.9
2022-10-09T03:26:15.128Z,89.0
2022-10-09T03:27:15.140Z,88.9
2022-10-09T03:28:15.315Z,88.9
2022-10-09T03:29:15.148Z,88.9
2022-10-09T03:30:15.152Z,88.5
2022-10-09T03:32:15.395Z,89.1
2022-10-09T03:33:15.182Z,89.0
2022-10-09T03:34:15.175Z,89.0
2022-10-09T03:35:15.186Z,89.0
2022-10-09T03:36:15.188Z,89.1
2022-10-09T03:37:15.193Z,89.0
2022-10-09T03:38:15.197Z,89.0
2022-10-09T03:39:15.212Z,88.9
2022-10-09T03:40:15.215Z,88.9
2022-10-09T03:41:15.221Z,88.7
2022-10-09T03:42:15.225Z,88.7
2022-10-09T03:43:15.237Z,88.9
2022-10-09T03:44:15.241Z,88.8
2022-10-09T03:45:15.242Z,88.8
2022-10-09T03:46:15.453Z,88.4
2022-10-09T03:47:15.265Z,88.4
2022-10-09T03:48:15.265Z,88.6
2022-10-09T03:49:15.273Z,88.5
2022-10-09T03:50:15.281Z,88.6
2022-10-09T03:51:15.286Z,88.5
2022-10-09T03:52:15.295Z,88.6
2022-10-09T03:53:15.299Z,88.3
2022-10-09T03:54:15.310Z,88.3
2022-10-09T03:55:15.317Z,88.3
2022-10-09T03:56:15.323Z,88.2
2022-10-09T03:57:15.330Z,88.4
2022-10-09T03:58:15.345Z,88.3
2022-10-09T03:59:15.336Z,88.3
2022-10-09T04:00:15.364Z,88.0
2022-10-09T04:01:15.862Z,88.1
2022-10-09T04:02:15.553Z,88.1
2022-10-09T04:03:15.361Z,88.0
2022-10-09T04:04:15.369Z,88.1
2022-10-09T04:05:15.377Z,88.1
2022-10-09T04:06:15.381Z,88.1
2022-10-09T04:07:15.386Z,88.2
2022-10-09T04:08:15.389Z,88.2
2022-10-09T04:09:15.408Z,88.2
2022-10-09T04:10:15.403Z,88.1
2022-10-09T04:11:15.410Z,88.1
2022-10-09T04:12:15.425Z,88.0
2022-10-09T04:13:15.427Z,88.0
2022-10-09T04:14:15.425Z,88.1
2022-10-09T04:15:15.438Z,88.1
2022-10-09T04:16:15.645Z,88.1
2022-10-09T04:17:15.445Z,88.0
2022-10-09T04:18:15.456Z,87.9
2022-10-09T04:19:15.468Z,87.9
2022-10-09T04:20:15.466Z,87.9
2022-10-09T04:21:15.472Z,88.0
2022-10-09T04:22:15.477Z,88.0
2022-10-09T04:23:15.500Z,88.0
2022-10-09T04:24:15.486Z,88.0
2022-10-09T04:25:15.494Z,87.9
2022-10-09T04:26:15.508Z,87.9
2022-10-09T04:27:15.514Z,88.1
2022-10-09T04:28:15.736Z,88.2
2022-10-09T04:29:15.519Z,88.2
2022-10-09T04:30:15.527Z,88.1
2022-10-09T04:31:15.722Z,88.1
2022-10-09T04:32:15.545Z,88.2
2022-10-09T04:33:15.547Z,88.1
2022-10-09T04:34:15.558Z,88.2
2022-10-09T04:35:15.570Z,88.1
2022-10-09T04:36:15.563Z,88.1
2022-10-09T04:37:15.573Z,88.0
2022-10-09T04:38:15.605Z,87.9
2022-10-09T04:39:15.598Z,88.0
2022-10-09T04:40:15.594Z,88.0
2022-10-09T04:41:15.604Z,87.9
2022-10-09T04:42:15.602Z,88.0
2022-10-09T04:43:15.616Z,88.1
2022-10-09T04:44:15.617Z,88.1
2022-10-09T04:45:15.627Z,88.2
2022-10-09T04:46:15.847Z,88.3
2022-10-09T04:47:15.635Z,88.4
2022-10-09T04:48:15.640Z,88.3
2022-10-09T04:49:15.655Z,88.2
2022-10-09T04:50:15.651Z,88.2
2022-10-09T04:51:15.682Z,88.2
2022-10-09T04:52:15.663Z,88.2
2022-10-09T04:53:15.672Z,88.1
2022-10-09T04:54:15.673Z,88.2
2022-10-09T04:55:15.682Z,88.3
2022-10-09T04:56:15.695Z,88.4
2022-10-09T04:57:15.699Z,88.4
2022-10-09T04:58:15.727Z,88.3
2022-10-09T04:59:15.712Z,88.3
2022-10-09T05:00:15.726Z,88.3
2022-10-09T05:01:16.006Z,88.3
2022-10-09T05:02:15.926Z,88.2
2022-10-09T05:03:15.742Z,88.2
2022-10-09T05:04:15.745Z,88.3
2022-10-09T05:05:15.756Z,88.2
2022-10-09T05:06:15.765Z,88.2
2022-10-09T05:07:15.761Z,88.3
2022-10-09T05:08:15.773Z,88.2
2022-10-09T05:09:15.782Z,88.2
2022-10-09T05:10:15.784Z,88.2
2022-10-09T05:11:15.789Z,88.3
2022-10-09T05:12:15.797Z,88.2
2022-10-09T05:13:15.801Z,88.3
2022-10-09T05:14:15.808Z,88.2
2022-10-09T05:15:15.817Z,88.2
2022-10-09T05:16:15.973Z,88.3
2022-10-09T05:17:23.848Z,88.2
2022-10-09T05:18:15.832Z,88.2
2022-10-09T05:19:15.840Z,88.2
2022-10-09T05:20:15.843Z,88.4
2022-10-09T05:21:15.852Z,88.2
2022-10-09T05:22:15.855Z,88.2
2022-10-09T05:23:15.870Z,88.2
2022-10-09T05:24:15.872Z,88.4
2022-10-09T05:25:15.890Z,88.5
2022-10-09T05:26:15.886Z,88.5
2022-10-09T05:27:15.895Z,88.4
2022-10-09T05:28:16.058Z,88.3
2022-10-09T05:29:16.005Z,88.4
2022-10-09T05:30:15.914Z,88.4
2022-10-09T05:31:15.982Z,88.4
2022-10-09T05:32:15.919Z,88.5
2022-10-09T05:33:15.928Z,88.6
2022-10-09T05:34:15.937Z,88.6
2022-10-09T05:35:15.942Z,88.6
2022-10-09T05:36:15.952Z,88.6
2022-10-09T05:37:15.951Z,88.5
2022-10-09T05:38:15.965Z,88.5
2022-10-09T05:39:15.966Z,88.5
2022-10-09T05:40:15.976Z,88.4
2022-10-09T05:41:15.976Z,88.3
2022-10-09T05:42:15.983Z,88.4
2022-10-09T05:43:15.991Z,88.3
2022-10-09T05:44:16.002Z,88.4
2022-10-09T05:45:16.005Z,88.4
2022-10-09T05:46:16.278Z,88.4
2022-10-09T05:47:16.015Z,88.4
2022-10-09T05:48:16.019Z,88.3
2022-10-09T05:49:16.027Z,88.4
2022-10-09T05:50:16.032Z,88.4
2022-10-09T05:51:16.041Z,88.3
2022-10-09T05:52:16.041Z,88.3
2022-10-09T05:53:16.053Z,88.4
2022-10-09T05:54:16.059Z,88.4
2022-10-09T05:55:16.072Z,88.3
2022-10-09T05:56:16.093Z,88.2
2022-10-09T05:57:16.079Z,88.3
2022-10-09T05:58:16.078Z,88.3
2022-10-09T05:59:16.083Z,88.2
2022-10-09T06:00:16.098Z,88.2
2022-10-09T06:01:16.245Z,88.2
2022-10-09T06:02:16.349Z,88.2
2022-10-09T06:03:16.127Z,88.2
2022-10-09T06:04:16.139Z,88.2
2022-10-09T06:05:16.140Z,88.2
2022-10-09T06:06:16.142Z,88.2
2022-10-09T06:07:16.160Z,88.3
2022-10-09T06:08:16.166Z,88.2
2022-10-09T06:09:16.181Z,88.1
2022-10-09T06:10:16.206Z,88.1
2022-10-09T06:11:16.199Z,88.1
2022-10-09T06:12:16.208Z,88.0
2022-10-09T06:13:16.207Z,88.0
2022-10-09T06:14:16.213Z,87.9
2022-10-09T06:15:16.219Z,88.0
2022-10-09T06:16:16.375Z,88.0
2022-10-09T06:17:16.237Z,88.1
2022-10-09T06:18:16.241Z,88.1
2022-10-09T06:19:16.253Z,88.2
2022-10-09T06:20:16.258Z,88.1
2022-10-09T06:21:16.263Z,88.1
2022-10-09T06:22:16.272Z,88.0
2022-10-09T06:23:16.279Z,88.0
2022-10-09T06:24:16.292Z,87.9
2022-10-09T06:25:16.291Z,88.0
2022-10-09T06:26:16.295Z,87.9
2022-10-09T06:27:16.302Z,87.8
2022-10-09T06:28:16.507Z,87.7
2022-10-09T06:29:16.319Z,87.6
2022-10-09T06:30:16.360Z,87.6
2022-10-09T06:31:16.637Z,87.5
2022-10-09T06:32:16.339Z,87.5
2022-10-09T06:33:16.362Z,87.5
2022-10-09T06:34:16.355Z,87.5
2022-10-09T06:35:16.367Z,87.6
2022-10-09T06:36:16.375Z,87.7
2022-10-09T06:37:16.375Z,87.9
2022-10-09T06:38:16.391Z,87.7
2022-10-09T06:39:16.402Z,87.8
2022-10-09T06:40:16.412Z,87.7
2022-10-09T06:41:16.409Z,87.7
2022-10-09T06:42:16.420Z,87.3
2022-10-09T06:43:16.430Z,87.4
2022-10-09T06:44:17.542Z,87.1
2022-10-09T06:45:16.438Z,87.3
2022-10-09T06:46:16.703Z,87.1
2022-10-09T06:47:16.457Z,87.0
2022-10-09T06:48:16.463Z,86.9
2022-10-09T06:49:16.467Z,86.8
2022-10-09T06:50:16.476Z,86.9
2022-10-09T06:51:16.477Z,86.8
2022-10-09T06:52:16.493Z,86.9
2022-10-09T06:53:16.493Z,86.7
2022-10-09T06:54:16.494Z,86.5
2022-10-09T06:55:16.497Z,86.7
2022-10-09T06:56:16.524Z,86.8
2022-10-09T06:57:16.519Z,86.9
2022-10-09T06:58:16.523Z,86.8
2022-10-09T06:59:16.541Z,86.7
2022-10-09T07:00:16.546Z,86.8
2022-10-09T07:01:16.789Z,86.7
2022-10-09T07:02:16.788Z,86.5
2022-10-09T07:03:16.567Z,86.6
2022-10-09T07:04:16.575Z,86.6
2022-10-09T07:05:16.583Z,86.6
2022-10-09T07:06:16.585Z,86.7
2022-10-09T07:07:16.592Z,86.7
2022-10-09T07:08:16.604Z,86.7
2022-10-09T07:09:16.643Z,86.8
2022-10-09T07:10:16.617Z,86.8
2022-10-09T07:11:16.634Z,86.8
2022-10-09T07:12:16.619Z,86.9
2022-10-09T07:13:16.628Z,86.9
2022-10-09T07:14:16.637Z,86.7
2022-10-09T07:15:16.659Z,86.7
2022-10-09T07:16:16.941Z,86.7
2022-10-09T07:17:16.654Z,86.6
2022-10-09T07:18:16.673Z,86.7
2022-10-09T07:19:16.670Z,86.7
2022-10-09T07:20:16.677Z,86.6
2022-10-09T07:21:16.684Z,86.7
2022-10-09T07:22:16.688Z,86.7
2022-10-09T07:23:16.689Z,86.7
2022-10-09T07:24:16.697Z,86.6
2022-10-09T07:25:16.698Z,86.6
2022-10-09T07:26:16.714Z,86.6
2022-10-09T07:27:16.729Z,86.6
2022-10-09T07:28:16.929Z,86.6
2022-10-09T07:29:16.767Z,86.7
2022-10-09T07:30:16.746Z,86.7
2022-10-09T07:31:16.958Z,86.7
2022-10-09T07:32:16.755Z,86.8
2022-10-09T07:33:16.762Z,86.8
2022-10-09T07:34:16.779Z,86.6
2022-10-09T07:35:16.788Z,86.8
2022-10-09T07:36:16.859Z,86.9
2022-10-09T07:37:16.794Z,86.6
2022-10-09T07:38:16.802Z,86.7
2022-10-09T07:39:16.821Z,86.6
2022-10-09T07:40:16.835Z,86.6
2022-10-09T07:41:16.831Z,86.7
2022-10-09T07:42:16.842Z,86.6
2022-10-09T07:43:16.846Z,86.6
2022-10-09T07:44:16.865Z,86.6
2022-10-09T07:45:16.866Z,86.6
2022-10-09T07:46:17.060Z,86.6
2022-10-09T07:47:16.891Z,86.6
2022-10-09T07:48:16.900Z,86.7
2022-10-09T07:49:16.908Z,86.7
2022-10-09T07:50:16.907Z,86.7
2022-10-09T07:51:16.917Z,86.7
2022-10-09T07:52:16.925Z,86.7
2022-10-09T07:53:16.937Z,86.7
2022-10-09T07:54:16.943Z,86.7
2022-10-09T07:55:16.945Z,86.5
2022-10-09T07:56:16.954Z,86.6
2022-10-09T07:57:16.957Z,86.5
2022-10-09T07:58:16.969Z,86.5
2022-10-09T07:59:16.965Z,86.5
2022-10-09T08:00:16.990Z,86.5
2022-10-09T08:01:20.919Z,86.5
2022-10-09T08:02:17.229Z,86.6
2022-10-09T08:03:16.997Z,86.7
2022-10-09T08:04:17.008Z,86.7
2022-10-09T08:05:17.010Z,86.7
2022-10-09T08:06:17.019Z,86.7
2022-10-09T08:07:17.032Z,86.6
2022-10-09T08:08:17.052Z,86.6
2022-10-09T08:09:17.046Z,86.6
2022-10-09T08:10:17.050Z,86.5
2022-10-09T08:11:17.063Z,86.3
2022-10-09T08:12:17.065Z,86.5
2022-10-09T08:13:17.087Z,86.4
2022-10-09T08:14:19.865Z,86.3
2022-10-09T08:15:17.084Z,86.2
2022-10-09T08:16:17.408Z,86.3
2022-10-09T08:17:17.146Z,86.2
2022-10-09T08:18:17.094Z,86.3
2022-10-09T08:19:17.127Z,86.3
2022-10-09T08:20:17.103Z,86.4
2022-10-09T08:21:17.116Z,86.4
2022-10-09T08:22:17.126Z,86.4
2022-10-09T08:23:17.127Z,86.4
2022-10-09T08:24:17.142Z,86.4
2022-10-09T08:25:17.153Z,86.4
2022-10-09T08:26:17.147Z,86.3
2022-10-09T08:27:17.158Z,86.4
2022-10-09T08:28:17.343Z,86.4
2022-10-09T08:29:17.182Z,86.3
2022-10-09T08:30:17.181Z,86.4
2022-10-09T08:31:17.567Z,86.3
2022-10-09T08:32:17.193Z,86.3
2022-10-09T08:33:17.206Z,86.2
2022-10-09T08:34:17.218Z,86.1
2022-10-09T08:35:17.214Z,86.2
2022-10-09T08:36:17.341Z,86.2
2022-10-09T08:37:17.236Z,86.0
2022-10-09T08:38:46.987Z,85.9
2022-10-09T08:39:17.252Z,86.1
2022-10-09T08:40:17.260Z,85.9
2022-10-09T08:41:17.274Z,86.0
2022-10-09T08:42:17.277Z,85.7
2022-10-09T08:43:17.294Z,85.7
2022-10-09T08:44:17.297Z,85.9
2022-10-09T08:45:17.305Z,85.8
2022-10-09T08:46:21.410Z,85.5
2022-10-09T08:47:17.320Z,85.6
2022-10-09T08:48:17.331Z,85.7
2022-10-09T08:49:17.339Z,85.7
2022-10-09T08:50:17.349Z,85.6
2022-10-09T08:51:17.357Z,85.5
2022-10-09T08:52:17.360Z,85.5
2022-10-09T08:53:17.376Z,85.4
2022-10-09T08:54:17.442Z,85.3
2022-10-09T08:55:17.403Z,85.4
2022-10-09T08:56:17.394Z,85.4
2022-10-09T08:57:17.404Z,85.3
2022-10-09T08:58:17.405Z,85.3
2022-10-09T08:59:17.413Z,85.2
2022-10-09T09:00:17.433Z,85.1
2022-10-09T09:01:17.565Z,85.1
2022-10-09T09:02:17.438Z,85.0
2022-10-09T09:03:17.602Z,85.0
2022-10-09T09:04:17.452Z,84.8
2022-10-09T09:05:17.461Z,84.7
2022-10-09T09:06:17.468Z,84.7
2022-10-09T09:07:17.478Z,84.6
2022-10-09T09:08:17.497Z,84.8
2022-10-09T09:09:17.486Z,84.8
2022-10-09T09:10:19.072Z,84.7
2022-10-09T09:11:22.132Z,84.7
2022-10-09T09:12:17.506Z,84.8
2022-10-09T09:13:17.517Z,84.6
2022-10-09T09:14:17.523Z,84.6
2022-10-09T09:15:17.526Z,84.4
2022-10-09T09:16:17.988Z,84.3
2022-10-09T09:17:17.544Z,84.2
2022-10-09T09:18:17.542Z,83.8
2022-10-09T09:19:17.555Z,83.9
2022-10-09T09:20:17.571Z,83.7
2022-10-09T09:21:17.575Z,83.3
2022-10-09T09:22:17.582Z,83.2
2022-10-09T09:23:17.576Z,83.3
2022-10-09T09:24:17.589Z,83.1
2022-10-09T09:25:17.592Z,83.2
2022-10-09T09:26:17.600Z,83.2
2022-10-09T09:27:17.617Z,82.9
2022-10-09T09:28:18.395Z,83.0
2022-10-09T09:29:17.620Z,83.0
2022-10-09T09:30:17.632Z,82.8
2022-10-09T09:31:17.919Z,82.3
2022-10-09T09:32:17.639Z,82.0
2022-10-09T09:33:17.657Z,82.1
2022-10-09T09:34:17.663Z,82.2
2022-10-09T09:35:17.665Z,82.2
2022-10-09T09:36:17.674Z,82.0
2022-10-09T09:37:17.687Z,82.0
2022-10-09T09:38:17.690Z,81.7
2022-10-09T09:40:31.151Z,81.3
2022-10-09T09:40:38.905Z,81.2
2022-10-09T09:41:17.715Z,81.1
2022-10-09T09:42:17.744Z,81.0
2022-10-09T09:43:17.736Z,80.7
2022-10-09T09:44:17.744Z,80.6
2022-10-09T09:45:17.749Z,80.4
2022-10-09T09:46:17.947Z,80.6
2022-10-09T09:47:17.764Z,80.5
2022-10-09T09:48:17.781Z,80.5
2022-10-09T09:49:17.803Z,80.4
2022-10-09T09:51:29.971Z,79.8
2022-10-09T09:52:17.805Z,79.3
2022-10-09T09:53:17.810Z,79.4
2022-10-09T09:54:17.822Z,79.2
2022-10-09T09:55:17.837Z,79.0
2022-10-09T09:56:17.832Z,78.9
2022-10-09T09:57:22.333Z,78.8
2022-10-09T09:58:17.851Z,78.9
2022-10-09T09:59:17.858Z,78.8
2022-10-09T10:00:17.863Z,78.5
2022-10-09T10:01:18.111Z,78.5
2022-10-09T10:02:18.294Z,78.5
2022-10-09T10:03:17.947Z,78.4
2022-10-09T10:04:17.893Z,77.6
2022-10-09T10:05:17.894Z,77.2
2022-10-09T10:06:17.906Z,77.3
2022-10-09T10:07:17.915Z,76.6
2022-10-09T10:08:17.922Z,76.7
2022-10-09T10:09:17.925Z,76.6
2022-10-09T10:10:26.118Z,76.4
2022-10-09T10:11:17.939Z,76.2
2022-10-09T10:12:17.959Z,76.2
2022-10-09T10:13:17.949Z,75.9
2022-10-09T10:14:17.964Z,75.7
2022-10-09T10:15:17.982Z,75.5
2022-10-09T10:16:18.118Z,74.7
2022-10-09T10:17:17.987Z,74.7
2022-10-09T10:18:17.995Z,74.9
2022-10-09T10:19:18.005Z,74.9
2022-10-09T10:20:18.362Z,74.8
2022-10-09T10:21:18.015Z,74.8
2022-10-09T10:22:18.023Z,74.5
2022-10-09T10:23:18.029Z,74.7
2022-10-09T10:24:18.041Z,74.6
2022-10-09T10:25:18.039Z,74.3
2022-10-09T10:26:18.050Z,74.4
2022-10-09T10:27:18.068Z,74.2
2022-10-09T10:28:18.343Z,74.0
2022-10-09T10:29:18.099Z,73.9
2022-10-09T10:30:18.288Z,73.7
2022-10-09T10:31:18.235Z,73.6
2022-10-09T10:32:18.103Z,73.9
2022-10-09T10:33:18.238Z,73.4
2022-10-09T10:34:18.128Z,73.7
2022-10-09T10:35:18.138Z,73.7
2022-10-09T10:36:18.139Z,73.5
2022-10-09T10:37:18.144Z,73.5
2022-10-09T10:38:18.160Z,73.4
2022-10-09T10:39:18.164Z,73.4
2022-10-09T10:40:18.359Z,73.4
2022-10-09T10:41:18.178Z,73.5
2022-10-09T10:42:18.210Z,73.1
2022-10-09T10:43:18.193Z,72.8
2022-10-09T10:44:18.233Z,73.1
2022-10-09T10:45:18.240Z,73.1
2022-10-09T10:46:18.408Z,73.0
2022-10-09T10:47:18.237Z,72.8
2022-10-09T10:48:18.235Z,72.7
2022-10-09T10:49:18.245Z,72.3
2022-10-09T10:50:18.290Z,72.6
2022-10-09T10:51:18.256Z,72.5
2022-10-09T10:52:18.272Z,72.4
2022-10-09T10:53:18.270Z,72.4
2022-10-09T10:54:18.283Z,72.2
2022-10-09T10:55:18.290Z,72.0
2022-10-09T10:56:18.295Z,71.7
2022-10-09T10:57:18.302Z,71.7
2022-10-09T10:58:18.537Z,71.5
2022-10-09T10:59:18.322Z,71.1
2022-10-09T11:00:18.426Z,71.2
2022-10-09T11:01:18.442Z,71.1
2022-10-09T11:02:18.336Z,70.8
2022-10-09T11:03:18.635Z,70.6
2022-10-09T11:04:18.353Z,70.3
2022-10-09T11:05:18.360Z,70.2
2022-10-09T11:06:18.389Z,69.6
2022-10-09T11:07:18.380Z,69.3
2022-10-09T11:08:18.385Z,69.2
2022-10-09T11:09:18.396Z,68.9
2022-10-09T11:10:18.401Z,68.3
2022-10-09T11:11:18.418Z,68.1
2022-10-09T11:13:18.432Z,66.8
2022-10-09T11:14:20.704Z,66.7
2022-10-09T11:15:18.450Z,66.2
2022-10-09T11:16:18.771Z,66.0
2022-10-09T11:17:18.466Z,66.3
2022-10-09T11:18:18.469Z,66.5
2022-10-09T11:19:18.472Z,66.6
2022-10-09T11:20:18.489Z,66.8
2022-10-09T11:21:18.492Z,67.0
2022-10-09T11:22:18.703Z,67.5
2022-10-09T11:23:18.512Z,67.7
2022-10-09T11:24:18.523Z,67.8
2022-10-09T11:25:18.531Z,67.9
2022-10-09T11:26:18.544Z,67.3
2022-10-09T11:27:18.554Z,65.8
2022-10-09T11:28:18.755Z,66.7
2022-10-09T11:29:18.584Z,66.5
2022-10-09T11:30:18.593Z,65.9
2022-10-09T11:31:18.835Z,66.0
2022-10-09T11:32:18.608Z,66.0
2022-10-09T11:33:18.619Z,66.3
2022-10-09T11:34:18.624Z,66.6
2022-10-09T11:35:18.644Z,66.6
2022-10-09T11:36:18.651Z,66.1
2022-10-09T11:37:18.668Z,66.4
2022-10-09T11:38:27.802Z,66.1
2022-10-09T11:39:18.933Z,66.2
2022-10-09T11:40:18.696Z,66.6
2022-10-09T11:41:18.681Z,66.7
2022-10-09T11:42:18.702Z,66.7
2022-10-09T11:43:18.700Z,66.6
2022-10-09T11:44:18.702Z,66.4
2022-10-09T11:45:18.731Z,66.5
2022-10-09T11:46:19.158Z,66.5
2022-10-09T11:47:18.738Z,66.5
2022-10-09T11:48:18.748Z,66.7
2022-10-09T11:49:18.777Z,66.9
2022-10-09T11:50:18.808Z,66.4
2022-10-09T11:51:18.765Z,66.7
2022-10-09T11:52:18.788Z,65.5
2022-10-09T11:53:18.788Z,66.2
2022-10-09T11:54:18.798Z,66.4
2022-10-09T11:55:18.811Z,64.5
2022-10-09T11:56:18.824Z,64.9
2022-10-09T11:57:18.828Z,65.5
2022-10-09T11:58:18.844Z,65.9
2022-10-09T11:59:18.844Z,65.3
2022-10-09T12:00:18.852Z,63.7
2022-10-09T12:01:19.009Z,63.0
2022-10-09T12:02:18.986Z,63.4
2022-10-09T12:03:18.877Z,63.7
2022-10-09T12:05:18.897Z,61.2
2022-10-09T12:06:18.899Z,61.7
2022-10-09T12:07:18.909Z,62.3
2022-10-09T12:08:20.082Z,61.6
2022-10-09T12:09:18.929Z,61.1
2022-10-09T12:10:18.925Z,60.4
2022-10-09T12:11:18.945Z,59.8
2022-10-09T12:12:18.942Z,58.7
2022-10-09T12:13:18.953Z,57.0
2022-10-09T12:14:20.471Z,57.3
2022-10-09T12:15:18.968Z,57.7
2022-10-09T12:16:19.111Z,56.6
2022-10-09T12:17:18.984Z,56.8
2022-10-09T12:18:18.994Z,56.1
2022-10-09T12:19:19.055Z,56.0
2022-10-09T12:20:19.020Z,56.1
2022-10-09T12:21:19.019Z,55.6
2022-10-09T12:22:19.037Z,55.9
2022-10-09T12:23:28.408Z,55.8
2022-10-09T12:24:19.049Z,55.7
2022-10-09T12:25:19.056Z,55.5
2022-10-09T12:26:19.061Z,55.9
2022-10-09T12:27:19.073Z,56.6
2022-10-09T12:28:19.265Z,56.5
2022-10-09T12:29:19.091Z,56.7
2022-10-09T12:30:19.088Z,56.5
2022-10-09T12:31:19.355Z,56.4
2022-10-09T12:32:19.110Z,56.7
2022-10-09T12:33:19.114Z,56.8
2022-10-09T12:34:19.119Z,56.8
2022-10-09T12:35:19.129Z,56.1
2022-10-09T12:36:19.134Z,56.3
2022-10-09T12:37:19.139Z,56.8
2022-10-09T12:38:19.153Z,56.8
2022-10-09T12:39:19.153Z,56.7
2022-10-09T12:40:19.163Z,56.9
2022-10-09T12:41:20.557Z,57.2
2022-10-09T12:42:19.385Z,57.2
2022-10-09T12:43:19.190Z,57.2
2022-10-09T12:44:19.198Z,57.4
2022-10-09T12:45:19.224Z,57.1
2022-10-09T12:46:19.441Z,57.6
2022-10-09T12:47:19.226Z,57.6
2022-10-09T12:48:19.240Z,55.7
2022-10-09T12:49:19.246Z,56.9
2022-10-09T12:50:19.253Z,56.3
2022-10-09T12:51:19.259Z,57.0
2022-10-09T12:52:19.265Z,57.2
2022-10-09T12:53:19.280Z,57.3
2022-10-09T12:54:19.296Z,57.1
2022-10-09T12:55:19.303Z,57.3
2022-10-09T12:56:19.299Z,57.6
2022-10-09T12:57:27.911Z,57.6
2022-10-09T12:58:19.322Z,57.3
2022-10-09T12:59:19.332Z,56.7
2022-10-09T13:00:19.340Z,57.1
2022-10-09T13:01:19.846Z,57.2
2022-10-09T13:02:19.915Z,56.9
2022-10-09T13:03:19.368Z,57.1
2022-10-09T13:04:19.369Z,57.3
2022-10-09T13:05:19.390Z,57.3
2022-10-09T13:06:19.388Z,57.3
2022-10-09T13:07:19.388Z,57.3
2022-10-09T13:08:19.410Z,57.1
2022-10-09T13:09:19.401Z,57.1
2022-10-09T13:10:19.421Z,57.4
2022-10-09T13:11:19.421Z,57.7
2022-10-09T13:12:19.427Z,57.6
2022-10-09T13:13:19.445Z,57.5
2022-10-09T13:14:19.452Z,57.6
2022-10-09T13:15:19.456Z,57.3
2022-10-09T13:16:19.629Z,57.2
2022-10-09T13:17:19.575Z,57.3
2022-10-09T13:18:19.487Z,57.2
2022-10-09T13:19:19.495Z,56.7
2022-10-09T13:20:19.510Z,56.9
2022-10-09T13:21:19.524Z,56.6
2022-10-09T13:22:19.535Z,56.2
2022-10-09T13:23:19.531Z,56.4
2022-10-09T13:24:19.546Z,56.3
2022-10-09T13:25:19.553Z,56.2
2022-10-09T13:26:19.568Z,55.8
2022-10-09T13:27:19.697Z,55.6
2022-10-09T13:28:19.782Z,55.1
2022-10-09T13:29:19.581Z,55.1
2022-10-09T13:30:19.605Z,55.1
2022-10-09T13:31:19.856Z,54.7
2022-10-09T13:32:19.610Z,54.8
2022-10-09T13:33:19.617Z,54.6
2022-10-09T13:34:19.624Z,54.4
2022-10-09T13:35:19.630Z,53.6
2022-10-09T13:36:19.643Z,54.0
2022-10-09T13:37:19.652Z,53.7
2022-10-09T13:38:19.649Z,53.9
2022-10-09T13:39:19.663Z,53.1